Accueil
METAR-TAF:

METAR-TAF

Aéroports :

Aéroport international Léopold-Sédar-Senghor

Dakar, Sénégal

latitude: 14-44N, longitude: 017-30W, altitude: 27 m

Observation

Le bulletin a été fait il y a 1 heure et 18 minutes, à 07:00 UTC
Vent 12 kt de nord
Température 19°C
Humidité 73%
Pression 1015 hPa
Visibilité: 8000 m

METAR: GOOY 230700Z 36012KT 8000 NSC 19/14 Q1015

Heure: 08:18 (08:18 UTC)

Prévision

Le bulletin a été fait il y a 2 heures et 48 minutes, à 05:30 UTC
Prévision valable du 23 à 06 UTC au 24 à 12 UTC
Vent 12 kt de nord
Visibilité 10 km ou plus
pas de nuages en-dessous de 1500 mètres et pas de cumulonimbus.

TAF: GOOY 230530Z 2306/2412 01012KT CAVOK

Observations et prévisions météorologiques de plus de 4000 aéroports (messages METAR et TAF).

Les stations disponibles sont représentées par des disques jaunes et rouges sur la carte.

Passer la souris dessus pour voir le nom de la station.

Cliquer dessus pour voir les observations et prévisions météorologiques.

Pour changer de carte: cliquez sur les boutons verts avec une croix noire pour zoomer, sur le bouton vert avec un tiret pour effectuer un zoom arrière, ou sur les flèches vertes pour les cartes adjacentes.


METAR-TAF: